Time;durP1;ratioP1;P1;durP2;ratioP2;P2;SDS_P1;SDS_P2;PMS_P1;PMS_P2;Temp;Humidity;BMP_temperature;BMP_pressure;BME280_temperature;BME280_humidity;BME280_pressure;Samples;Min_cycle;Max_cycle;Signal;HPM_P1;HPM_P2
2022/11/25 00:02:21;;;;;;;18.35;2.92;;;;;;;9.72;86.34;100855.97;5135692;27;20028;-63
2022/11/25 00:04:46;;;;;;;13.85;2.75;;;;;;;9.74;86.93;100857.78;5138369;27;20034;-63
2022/11/25 00:07:12;;;;;;;13.80;3.00;;;;;;;9.75;86.26;100850.75;5138065;27;20110;-64
2022/11/25 00:09:37;;;;;;;15.77;3.08;;;;;;;9.78;86.47;100856.06;5136751;27;20027;-63
2022/11/25 00:12:03;;;;;;;14.02;3.42;;;;;;;9.78;86.35;100851.69;5136719;27;20024;-63
2022/11/25 00:14:28;;;;;;;13.60;2.80;;;;;;;9.79;86.50;100856.09;5138002;27;20023;-63
2022/11/25 00:16:53;;;;;;;18.23;3.53;;;;;;;9.82;86.19;100846.44;5138099;27;20051;-63
2022/11/25 00:19:19;;;;;;;15.45;3.60;;;;;;;9.87;86.20;100850.03;5137790;27;20503;-63
2022/11/25 00:21:45;;;;;;;11.65;2.97;;;;;;;9.87;86.36;100842.13;5137648;27;20030;-63
2022/11/25 00:24:13;;;;;;;13.45;2.83;;;;;;;9.87;86.57;100847.41;5136607;27;20050;-63
2022/11/25 00:26:38;;;;;;;14.02;3.20;;;;;;;9.87;86.25;100840.34;5136684;27;20076;-63
2022/11/25 00:29:06;;;;;;;10.95;3.10;;;;;;;9.87;86.37;100835.06;5137629;27;20023;-63
2022/11/25 00:31:34;;;;;;;10.32;2.90;;;;;;;9.89;86.13;100830.72;5137640;27;20152;-63
2022/11/25 00:34:00;;;;;;;14.48;3.40;;;;;;;9.92;86.48;100829.84;5137455;27;20027;-63
2022/11/25 00:36:44;;;;;;;15.75;3.30;;;;;;;9.91;86.42;100833.38;5137515;27;20109;-63
2022/11/25 00:39:15;;;;;;;15.77;2.83;;;;;;;9.88;86.80;100835.97;5137833;27;20059;-63
2022/11/25 00:44:35;;;;;;;17.60;3.40;;;;;;;9.88;86.70;100825.41;5137535;27;20054;-63
2022/11/25 00:47:21;;;;;;;20.17;3.50;;;;;;;9.90;86.37;100826.31;5137428;27;20106;-63
2022/11/25 00:49:52;;;;;;;14.38;3.08;;;;;;;9.89;86.57;100827.16;5136755;27;20095;-64
2022/11/25 00:52:20;;;;;;;19.27;3.33;;;;;;;9.89;86.37;100828.09;5135843;27;20151;-63
2022/11/25 00:54:49;;;;;;;19.58;3.42;;;;;;;9.89;86.67;100820.16;5137173;27;20456;-65
2022/11/25 00:57:16;;;;;;;12.13;2.67;;;;;;;9.88;86.75;100830.69;5137282;27;20050;-63
2022/11/25 00:59:41;;;;;;;16.58;3.50;;;;;;;9.88;86.69;100831.56;5137312;27;20418;-63
2022/11/25 01:02:09;;;;;;;15.82;3.45;;;;;;;9.87;87.18;100835.06;5137012;27;20468;-63
2022/11/25 01:04:34;;;;;;;15.68;3.22;;;;;;;9.89;86.78;100843.00;5136998;27;20023;-63
2022/11/25 01:07:01;;;;;;;15.48;2.83;;;;;;;9.88;86.71;100843.88;5136924;27;20084;-62
2022/11/25 01:09:27;;;;;;;21.45;3.75;;;;;;;9.86;87.50;100843.00;5136876;27;20521;-62
2022/11/25 01:11:52;;;;;;;18.95;3.13;;;;;;;9.85;87.25;100833.28;5136887;27;20110;-63
2022/11/25 01:14:19;;;;;;;13.80;3.40;;;;;;;9.88;87.39;100830.69;5136462;27;20099;-62
2022/11/25 01:16:45;;;;;;;16.00;3.30;;;;;;;9.86;87.37;100841.22;5136760;27;20039;-62
2022/11/25 01:19:11;;;;;;;13.73;3.08;;;;;;;9.87;87.41;100828.91;5136716;27;20019;-62
2022/11/25 01:21:36;;;;;;;13.65;2.90;;;;;;;9.87;88.06;100835.06;5136648;27;20553;-62
2022/11/25 01:24:03;;;;;;;17.42;3.45;;;;;;;9.88;87.00;100838.59;5136654;27;20019;-62
2022/11/25 01:26:30;;;;;;;14.50;3.53;;;;;;;9.92;87.57;100840.41;5136571;27;20114;-62
2022/11/25 01:29:00;;;;;;;15.05;3.42;;;;;;;9.91;87.71;100842.16;5136713;27;20110;-65
2022/11/25 01:31:28;;;;;;;13.85;2.95;;;;;;;9.90;87.50;100835.13;5135081;27;20035;-62
2022/11/25 01:33:57;;;;;;;16.95;3.45;;;;;;;9.93;87.55;100853.63;5136564;27;20395;-62
2022/11/25 01:36:23;;;;;;;13.13;3.38;;;;;;;9.92;87.88;100850.97;5136555;27;20019;-62
2022/11/25 01:38:51;;;;;;;14.98;3.35;;;;;;;9.92;87.55;100841.28;5136370;27;20034;-62
2022/11/25 01:41:18;;;;;;;14.75;3.20;;;;;;;9.93;87.92;100860.66;5136186;27;20051;-62
2022/11/25 01:44:12;;;;;;;14.40;3.00;;;;;;;9.87;87.88;100850.91;5136430;27;20047;-62
2022/11/25 01:46:55;;;;;;;;;;;;;;;9.93;88.33;100858.03;5136383;27;20361;-62
2022/11/25 01:49:20;;;;;;;13.15;3.30;;;;;;;9.92;88.20;100862.41;5136058;27;19911;-64
2022/11/25 01:51:51;;;;;;;18.65;3.83;;;;;;;9.93;88.04;100866.81;5136003;27;20061;-62
2022/11/25 01:54:23;;;;;;;16.05;3.10;;;;;;;9.97;87.85;100860.72;5136425;27;20530;-62
2022/11/25 01:56:55;;;;;;;16.77;3.50;;;;;;;9.98;88.07;100882.75;5135952;27;20080;-62
2022/11/25 01:59:22;;;;;;;17.52;3.20;;;;;;;9.98;88.33;100875.72;5135966;27;20438;-63
2022/11/25 02:01:48;;;;;;;16.88;3.65;;;;;;;10.00;88.17;100873.09;5135974;27;20027;-63
2022/11/25 02:04:17;;;;;;;16.27;3.47;;;;;;;9.98;88.58;100881.00;5135724;27;20038;-63
2022/11/25 02:06:51;;;;;;;14.02;2.83;;;;;;;10.00;88.62;100883.66;5135780;27;20548;-62
2022/11/25 02:09:17;;;;;;;11.20;3.10;;;;;;;10.00;88.40;100884.53;5135714;27;20034;-62
2022/11/25 02:11:44;;;;;;;16.95;3.53;;;;;;;10.03;88.17;100883.69;5135620;27;20507;-62
2022/11/25 02:14:13;;;;;;;13.40;3.05;;;;;;;10.07;88.13;100900.47;5135697;27;20024;-62
2022/11/25 02:16:38;;;;;;;12.60;3.65;;;;;;;10.08;88.18;100897.84;5135283;27;20029;-62
2022/11/25 02:19:10;;;;;;;11.18;2.92;;;;;;;10.08;87.98;100889.03;5134129;27;20027;-62
2022/11/25 02:21:40;;;;;;;;;;;;;;;10.09;88.07;100898.72;5135963;27;20031;-62
2022/11/25 02:24:21;;;;;;;12.95;3.17;;;;;;;10.06;88.31;100906.59;5134976;27;20376;-62
2022/11/25 02:26:46;;;;;;;16.55;3.33;;;;;;;10.09;88.18;100904.00;5135605;27;20032;-62
2022/11/25 02:29:12;;;;;;;11.77;3.10;;;;;;;10.08;88.31;100910.16;5135217;27;20102;-62
2022/11/25 02:31:37;;;;;;;16.65;3.13;;;;;;;10.06;88.58;100907.47;5135157;27;20018;-62
2022/11/25 02:34:02;;;;;;;13.25;3.08;;;;;;;10.08;89.01;100916.31;5135143;27;20495;-63
2022/11/25 02:36:28;;;;;;;14.15;3.47;;;;;;;10.02;89.39;100914.50;5134197;27;20022;-64
2022/11/25 02:38:59;;;;;;;11.55;2.95;;;;;;;10.01;89.69;100914.44;5135284;27;20027;-64
2022/11/25 02:41:31;;;;;;;9.70;2.60;;;;;;;9.97;89.97;100924.06;5135432;27;20024;-65
2022/11/25 02:43:57;;;;;;;12.75;3.22;;;;;;;9.94;90.24;100916.13;5135152;27;20471;-65
2022/11/25 02:46:24;;;;;;;11.60;2.83;;;;;;;9.91;91.00;100925.75;5134869;27;20105;-65
2022/11/25 02:48:55;;;;;;;14.05;2.92;;;;;;;9.86;91.24;100925.69;5135010;27;20038;-65
2022/11/25 02:51:23;;;;;;;13.88;2.90;;;;;;;9.84;91.62;100934.44;5134702;27;20047;-65
2022/11/25 02:53:49;;;;;;;10.68;2.67;;;;;;;9.80;92.19;100928.22;5134923;27;20077;-65
2022/11/25 02:56:16;;;;;;;13.43;2.53;;;;;;;9.75;92.74;100925.50;5134852;27;20627;-66
2022/11/25 02:58:42;;;;;;;13.10;3.08;;;;;;;9.73;92.83;100921.97;5134722;27;20026;-66
2022/11/25 03:01:08;;;;;;;10.35;3.28;;;;;;;9.70;93.08;100915.75;5134776;27;20106;-66
2022/11/25 03:03:33;;;;;;;15.80;3.20;;;;;;;9.68;93.54;100922.78;5134654;27;20067;-66
2022/11/25 03:05:59;;;;;;;10.52;2.80;;;;;;;9.65;94.28;100917.44;5134730;27;20031;-66
2022/11/25 03:08:24;;;;;;;16.10;2.80;;;;;;;9.64;94.36;100865.56;5134698;27;20539;-66
2022/11/25 03:10:50;;;;;;;11.02;2.88;;;;;;;9.64;94.09;100865.56;5134475;27;20026;-66
2022/11/25 03:13:15;;;;;;;8.02;2.80;;;;;;;9.61;94.67;100837.34;5134558;27;20440;-65
2022/11/25 03:15:40;;;;;;;12.85;3.00;;;;;;;9.58;94.05;100846.97;5134098;27;20492;-65
2022/11/25 03:18:06;;;;;;;13.00;3.33;;;;;;;9.56;94.61;100862.78;5134412;27;20031;-66
2022/11/25 03:20:34;;;;;;;9.00;2.80;;;;;;;9.54;94.12;100867.13;5134373;27;20023;-66
2022/11/25 03:22:59;;;;;;;13.40;2.63;;;;;;;9.52;94.58;100876.78;5134406;27;20030;-66
2022/11/25 03:25:25;;;;;;;11.40;2.63;;;;;;;9.50;94.90;100883.78;5134257;27;20035;-66
2022/11/25 03:27:50;;;;;;;13.13;2.60;;;;;;;9.45;95.12;100898.66;5134495;27;20054;-66
2022/11/25 03:30:19;;;;;;;11.65;2.58;;;;;;;9.42;95.60;100902.16;5134115;27;20054;-67
2022/11/25 03:32:44;;;;;;;9.93;2.60;;;;;;;9.40;95.61;100902.97;5134197;27;20045;-66
2022/11/25 03:35:11;;;;;;;11.07;2.53;;;;;;;9.38;95.87;100880.94;5134094;27;20024;-66
2022/11/25 03:37:37;;;;;;;13.43;2.97;;;;;;;9.36;96.06;100886.19;5132062;27;20050;-66
2022/11/25 03:40:04;;;;;;;11.38;2.17;;;;;;;9.34;96.21;100921.34;5132857;27;20027;-66
2022/11/25 03:42:29;;;;;;;10.55;2.25;;;;;;;9.32;96.40;100937.13;5134189;27;20030;-66
2022/11/25 03:44:54;;;;;;;9.13;2.45;;;;;;;9.31;96.36;100939.75;5133861;27;20119;-66
2022/11/25 03:47:20;;;;;;;11.30;2.80;;;;;;;9.30;96.43;100938.84;5133915;27;20023;-67
2022/11/25 03:49:46;;;;;;;8.30;2.38;;;;;;;9.30;96.57;100935.34;5133901;27;20039;-65
2022/11/25 03:52:11;;;;;;;9.80;2.58;;;;;;;9.27;96.54;100931.75;5133759;28;20047;-66
2022/11/25 03:54:36;;;;;;;10.30;2.50;;;;;;;9.26;96.60;100935.28;5133906;28;20404;-66
2022/11/25 03:57:02;;;;;;;8.85;2.30;;;;;;;9.25;96.27;100941.41;5133907;27;20026;-66
2022/11/25 03:59:27;;;;;;;7.93;2.33;;;;;;;9.24;96.71;100944.88;5133872;27;20099;-67
2022/11/25 04:01:53;;;;;;;7.65;2.13;;;;;;;9.23;96.35;100944.88;5133856;27;20020;-66
2022/11/25 04:04:18;;;;;;;10.32;2.30;;;;;;;9.18;96.79;100950.06;5132580;28;20030;-67
2022/11/25 04:06:43;;;;;;;7.80;2.10;;;;;;;9.14;96.96;100958.78;5133824;27;20055;-65
2022/11/25 04:09:10;;;;;;;7.88;2.00;;;;;;;9.09;96.87;100947.25;5134042;27;20035;-66
2022/11/25 04:14:20;;;;;;;7.18;2.42;;;;;;;9.08;97.35;100961.31;5133790;28;20037;-66
2022/11/25 04:16:46;;;;;;;14.65;2.65;;;;;;;9.06;97.51;100959.50;5133507;27;20015;-67
2022/11/25 04:19:11;;;;;;;6.35;2.00;;;;;;;9.03;97.24;100963.84;5133617;28;20076;-66
2022/11/25 04:21:37;;;;;;;6.82;2.20;;;;;;;9.02;97.24;100961.19;5133601;28;20034;-67
2022/11/25 04:24:02;;;;;;;10.10;2.20;;;;;;;8.97;97.45;100963.72;5133696;27;20038;-65
2022/11/25 04:26:27;;;;;;;6.80;2.00;;;;;;;8.99;97.62;100969.03;5133649;27;20106;-66
2022/11/25 04:28:53;;;;;;;6.97;2.10;;;;;;;8.94;97.08;100970.69;5133911;27;20533;-66
2022/11/25 04:31:18;;;;;;;5.57;2.15;;;;;;;8.92;96.98;100980.31;5133759;27;20444;-66
2022/11/25 04:33:44;;;;;;;9.07;2.30;;;;;;;8.87;96.70;100984.63;5132576;28;20055;-65
2022/11/25 04:36:09;;;;;;;5.43;2.10;;;;;;;8.80;97.07;100985.34;5133529;28;20039;-65
2022/11/25 04:38:35;;;;;;;7.63;2.10;;;;;;;8.78;97.06;100998.50;5133515;28;20054;-65
2022/11/25 04:41:00;;;;;;;6.25;1.90;;;;;;;8.75;97.38;101001.06;5133450;28;20035;-65
2022/11/25 04:43:26;;;;;;;5.45;2.05;;;;;;;8.73;97.36;101014.19;5133402;28;20039;-65
2022/11/25 04:45:52;;;;;;;7.60;2.05;;;;;;;8.70;97.37;101011.50;5133252;28;20027;-65
2022/11/25 04:48:17;;;;;;;5.80;1.60;;;;;;;8.68;97.11;101009.69;5134247;27;20026;-65
2022/11/25 04:50:44;;;;;;;5.70;1.67;;;;;;;8.67;97.60;101014.06;5136804;27;20137;-65
2022/11/25 04:53:09;;;;;;;6.53;2.10;;;;;;;8.67;97.25;101008.81;5137093;27;20027;-65
2022/11/25 04:55:35;;;;;;;7.90;2.00;;;;;;;8.68;97.83;101012.31;5137221;27;20070;-65
2022/11/25 04:58:00;;;;;;;6.50;1.98;;;;;;;8.67;97.57;101014.06;5137077;27;20023;-65
2022/11/25 05:00:25;;;;;;;5.60;1.90;;;;;;;8.66;97.79;101014.03;5137257;27;20056;-65
2022/11/25 05:02:51;;;;;;;5.32;2.03;;;;;;;8.67;98.13;101008.81;5136974;27;20031;-64
2022/11/25 05:05:16;;;;;;;7.35;2.28;;;;;;;8.67;97.88;101014.06;5136918;27;20094;-65
2022/11/25 05:07:43;;;;;;;9.02;1.98;;;;;;;8.65;98.09;101028.06;5136969;27;20035;-65
2022/11/25 05:10:08;;;;;;;6.38;2.38;;;;;;;8.61;98.09;101031.47;5136840;27;20175;-65
2022/11/25 05:12:34;;;;;;;6.93;2.33;;;;;;;8.59;98.42;101036.72;5136783;27;20485;-65
2022/11/25 05:15:00;;;;;;;7.35;1.95;;;;;;;8.58;98.40;101031.44;5136525;27;20026;-65
2022/11/25 05:17:28;;;;;;;5.63;2.08;;;;;;;8.60;98.54;101040.25;5136951;27;20027;-64
2022/11/25 05:19:53;;;;;;;4.72;2.20;;;;;;;8.58;98.17;101037.59;5136942;27;20447;-64
2022/11/25 05:22:25;;;;;;;7.93;2.20;;;;;;;8.60;98.64;101042.88;5136651;27;20567;-65
2022/11/25 05:24:52;;;;;;;8.85;2.15;;;;;;;8.53;98.86;101041.88;5136691;27;20105;-64
2022/11/25 05:27:18;;;;;;;9.75;2.55;;;;;;;8.50;98.54;101028.63;5136559;27;20031;-65
2022/11/25 05:29:43;;;;;;;7.47;2.45;;;;;;;8.47;98.13;101037.31;5136329;27;20116;-65
2022/11/25 05:32:09;;;;;;;8.63;2.28;;;;;;;8.45;98.44;101046.06;5136516;27;20027;-65
2022/11/25 05:34:36;;;;;;;7.22;2.60;;;;;;;8.44;98.19;101042.56;5136293;27;20102;-64
2022/11/25 05:37:02;;;;;;;7.28;2.40;;;;;;;8.41;98.59;101034.56;5134859;27;20023;-65
2022/11/25 05:39:27;;;;;;;7.10;2.30;;;;;;;8.40;98.20;101042.44;5136170;27;20035;-64
2022/11/25 05:41:52;;;;;;;9.68;2.60;;;;;;;8.37;98.55;101045.00;5136126;27;20034;-65
2022/11/25 05:44:18;;;;;;;6.55;2.20;;;;;;;8.37;98.73;101050.28;5136001;27;20034;-65
2022/11/25 05:46:45;;;;;;;7.47;2.70;;;;;;;8.36;99.22;101037.94;5136230;27;20046;-64
2022/11/25 05:49:11;;;;;;;8.80;2.30;;;;;;;8.31;99.03;101047.44;5136216;27;20054;-65
2022/11/25 05:51:37;;;;;;;7.47;2.40;;;;;;;8.29;99.66;101052.69;5135785;27;20042;-65
2022/11/25 05:54:02;;;;;;;7.88;2.42;;;;;;;8.27;99.42;101054.41;5136180;27;20023;-64
2022/11/25 05:56:28;;;;;;;6.38;2.47;;;;;;;8.22;99.93;101054.31;5135850;27;20503;-65
2022/11/25 05:58:53;;;;;;;7.72;2.53;;;;;;;8.15;99.71;101046.22;5135448;27;20039;-65
2022/11/25 06:01:19;;;;;;;9.00;2.65;;;;;;;8.20;100.00;101063.00;5135508;27;20039;-65
2022/11/25 06:03:45;;;;;;;10.35;2.85;;;;;;;8.15;100.00;101062.00;5136096;27;20019;-65
2022/11/25 06:06:11;;;;;;;7.72;2.58;;;;;;;8.13;100.00;101066.31;5136096;27;20545;-65
2022/11/25 06:08:37;;;;;;;6.30;2.60;;;;;;;8.10;100.00;101069.81;5135864;27;20027;-65
2022/11/25 06:11:05;;;;;;;7.20;2.70;;;;;;;8.08;100.00;101067.97;5135798;27;20091;-65
2022/11/25 06:13:30;;;;;;;7.70;2.80;;;;;;;8.08;100.00;101070.59;5135562;27;20465;-65
2022/11/25 06:15:55;;;;;;;11.77;2.80;;;;;;;8.04;100.00;101077.53;5135345;27;20039;-65
2022/11/25 06:18:21;;;;;;;9.80;2.70;;;;;;;8.03;100.00;101068.75;5135491;27;20477;-64
2022/11/25 06:20:55;;;;;;;9.35;2.50;;;;;;;8.02;100.00;101072.22;5135396;27;20035;-65
2022/11/25 06:23:20;;;;;;;8.55;2.45;;;;;;;8.01;100.00;101074.84;5135447;27;20468;-66
2022/11/25 06:25:46;;;;;;;5.30;2.40;;;;;;;8.01;100.00;101091.50;5135431;27;20034;-65
2022/11/25 06:28:11;;;;;;;9.73;3.25;;;;;;;7.98;100.00;101093.19;5135349;27;20023;-64
2022/11/25 06:30:36;;;;;;;10.07;2.60;;;;;;;7.95;100.00;101095.72;5135475;27;20476;-64
2022/11/25 06:33:02;;;;;;;6.43;2.47;;;;;;;7.92;100.00;101085.09;5135166;27;20358;-64
2022/11/25 06:35:27;;;;;;;7.15;2.55;;;;;;;7.88;100.00;101102.59;5133838;27;20019;-64
2022/11/25 06:37:53;;;;;;;12.43;2.90;;;;;;;7.87;100.00;101102.53;5135003;27;20027;-65
2022/11/25 06:40:18;;;;;;;8.98;3.10;;;;;;;7.83;100.00;101104.19;5135036;27;20084;-64
2022/11/25 06:42:43;;;;;;;8.98;2.97;;;;;;;7.85;100.00;101106.88;5135253;27;20034;-64
2022/11/25 06:45:09;;;;;;;11.63;3.20;;;;;;;7.81;100.00;101107.63;5134792;27;20400;-64
2022/11/25 06:47:34;;;;;;;9.80;3.03;;;;;;;7.81;100.00;101112.91;5134856;27;20034;-64
2022/11/25 06:50:00;;;;;;;10.65;2.90;;;;;;;7.80;100.00;101116.38;5134756;27;20023;-64
2022/11/25 06:52:25;;;;;;;6.57;2.80;;;;;;;7.78;100.00;101113.69;5134727;27;20500;-64
2022/11/25 06:54:51;;;;;;;9.90;3.40;;;;;;;7.78;100.00;101126.84;5134906;27;20524;-64
2022/11/25 06:57:18;;;;;;;12.20;3.42;;;;;;;7.70;100.00;101116.13;5135005;27;20031;-64
2022/11/25 06:59:44;;;;;;;8.50;3.28;;;;;;;7.70;100.00;101123.13;5134693;27;20038;-65
2022/11/25 07:02:12;;;;;;;12.13;3.17;;;;;;;7.69;100.00;101121.34;5134624;27;20056;-64
2022/11/25 07:04:39;;;;;;;11.38;3.25;;;;;;;7.64;100.00;101131.75;5134471;27;20031;-66
2022/11/25 07:07:05;;;;;;;8.65;3.15;;;;;;;7.64;100.00;101129.13;5134656;27;20384;-65
2022/11/25 07:09:30;;;;;;;11.73;3.55;;;;;;;7.63;100.00;101144.88;5134575;27;20102;-63
2022/11/25 07:11:55;;;;;;;9.15;3.17;;;;;;;7.62;100.00;101143.06;5134278;27;20070;-63
2022/11/25 07:14:21;;;;;;;10.10;3.40;;;;;;;7.56;100.00;101135.91;5134496;27;20111;-63
2022/11/25 07:16:46;;;;;;;9.55;3.40;;;;;;;7.56;100.00;101151.69;5134269;27;20397;-63
2022/11/25 07:19:15;;;;;;;10.10;3.72;;;;;;;7.56;100.00;101156.94;5134258;27;20122;-64
2022/11/25 07:21:43;;;;;;;12.13;3.60;;;;;;;7.55;100.00;101160.44;5134583;27;20027;-63
2022/11/25 07:24:09;;;;;;;13.32;3.50;;;;;;;7.52;100.00;101163.84;5134218;27;20038;-63
2022/11/25 07:26:39;;;;;;;10.90;3.10;;;;;;;7.52;100.00;101165.59;5134395;27;20020;-62
2022/11/25 07:29:10;;;;;;;11.65;3.50;;;;;;;7.53;100.00;101170.00;5134562;27;20023;-64
2022/11/25 07:31:39;;;;;;;12.07;3.33;;;;;;;7.52;100.00;101176.09;5134084;27;20486;-63
2022/11/25 07:34:04;;;;;;;12.00;3.53;;;;;;;7.49;100.00;101181.28;5134123;27;20556;-64
2022/11/25 07:36:31;;;;;;;14.30;3.35;;;;;;;7.50;100.00;101190.97;5134027;27;20110;-63
2022/11/25 07:38:58;;;;;;;14.05;3.90;;;;;;;7.51;100.00;101190.13;5133942;27;20099;-64
2022/11/25 07:41:25;;;;;;;12.23;3.60;;;;;;;7.55;100.00;101186.72;5134033;27;20034;-66
2022/11/25 07:43:59;;;;;;;6.90;3.20;;;;;;;7.56;100.00;101195.50;5134073;27;20023;-63
2022/11/25 07:46:28;;;;;;;11.95;3.70;;;;;;;7.57;100.00;101203.41;5133838;27;20465;-64
2022/11/25 07:48:56;;;;;;;14.07;4.25;;;;;;;7.59;100.00;101214.00;5133920;27;20449;-64
2022/11/25 07:51:25;;;;;;;12.50;3.75;;;;;;;7.62;100.00;101225.47;5133652;27;20524;-64
2022/11/25 07:53:54;;;;;;;16.25;3.45;;;;;;;7.66;100.00;101234.34;5133968;27;20107;-64
2022/11/25 07:56:20;;;;;;;9.13;3.50;;;;;;;7.71;100.00;101231.03;5133800;27;20019;-64
2022/11/25 07:58:46;;;;;;;16.48;4.07;;;;;;;7.83;100.00;101240.09;5133738;27;20050;-64
2022/11/25 08:01:13;;;;;;;14.45;3.60;;;;;;;7.96;100.00;101234.31;5133772;27;20027;-64
2022/11/25 08:03:41;;;;;;;7.75;3.35;;;;;;;8.03;100.00;101237.16;5133976;27;20022;-63
2022/11/25 08:06:09;;;;;;;9.77;3.53;;;;;;;8.01;100.00;101241.53;5133652;27;20387;-64
2022/11/25 08:08:37;;;;;;;10.93;3.70;;;;;;;7.98;100.00;101240.53;5133661;27;20023;-63
2022/11/25 08:11:14;;;;;;;11.23;3.58;;;;;;;7.96;100.00;101256.25;5133635;27;20031;-64
2022/11/25 08:13:39;;;;;;;11.00;3.38;;;;;;;7.95;100.00;101253.59;5133766;27;20022;-64
2022/11/25 08:16:06;;;;;;;10.13;3.70;;;;;;;8.08;100.00;101258.34;5133801;27;20034;-63
2022/11/25 08:18:32;;;;;;;11.70;3.60;;;;;;;8.28;100.00;101258.91;5133638;27;20023;-63
2022/11/25 08:21:05;;;;;;;11.50;3.80;;;;;;;8.49;100.00;101270.03;5133660;27;20039;-63
2022/11/25 08:23:33;;;;;;;9.25;3.50;;;;;;;8.65;98.93;101268.69;5135967;27;20019;-63
2022/11/25 08:26:07;;;;;;;11.85;3.00;;;;;;;8.83;97.73;101270.88;5138123;27;20024;-64
2022/11/25 08:28:33;;;;;;;11.85;3.17;;;;;;;8.98;97.18;101268.59;5137649;27;20023;-64
2022/11/25 08:31:28;;;;;;;10.48;3.20;;;;;;;9.17;96.11;101282.25;5137476;27;20427;-68
2022/11/25 08:33:54;;;;;;;9.35;3.30;;;;;;;9.32;94.86;101279.06;5137640;27;20037;-64
2022/11/25 08:36:21;;;;;;;9.50;2.97;;;;;;;9.42;93.30;101278.38;5137534;27;20418;-64
2022/11/25 08:38:51;;;;;;;8.38;3.05;;;;;;;9.51;92.44;101276.88;5137685;27;20023;-63
2022/11/25 08:41:24;;;;;;;10.10;3.10;;;;;;;9.66;92.55;101278.03;5137432;27;20019;-64
2022/11/25 08:43:50;;;;;;;12.00;4.00;;;;;;;9.77;91.39;101282.69;5137623;27;20019;-64
2022/11/25 08:46:22;;;;;;;7.40;3.08;;;;;;;9.83;90.28;101286.31;5137211;27;20035;-64
2022/11/25 08:48:47;;;;;;;8.20;2.97;;;;;;;9.94;90.15;101285.69;5137338;27;20027;-63
2022/11/25 08:51:19;;;;;;;12.70;3.20;;;;;;;10.09;89.73;101282.44;5136908;27;20072;-64
2022/11/25 08:53:46;;;;;;;6.38;2.88;;;;;;;10.25;89.18;101287.22;5137296;27;20023;-64
2022/11/25 08:56:12;;;;;;;10.63;3.28;;;;;;;10.35;88.03;101274.16;5137178;27;20026;-64
2022/11/25 08:58:37;;;;;;;11.30;4.10;;;;;;;10.57;87.78;101292.19;5137185;27;20067;-64
2022/11/25 09:01:05;;;;;;;9.38;3.63;;;;;;;10.92;85.66;101295.47;5137092;27;20027;-66
2022/11/25 09:03:32;;;;;;;10.13;3.17;;;;;;;11.30;83.36;101292.50;5137055;27;20051;-64
2022/11/25 09:05:57;;;;;;;8.73;2.90;;;;;;;11.67;82.92;101298.34;5136928;27;20054;-65
2022/11/25 09:08:23;;;;;;;9.57;2.83;;;;;;;11.96;80.60;101299.63;5137141;27;20392;-65
2022/11/25 09:10:51;;;;;;;9.00;2.83;;;;;;;12.25;79.35;101299.97;5136817;27;20110;-65
2022/11/25 09:13:16;;;;;;;11.77;2.88;;;;;;;12.52;78.16;101311.75;5136799;27;20484;-65
2022/11/25 09:15:41;;;;;;;11.38;3.22;;;;;;;12.67;77.04;101298.63;5136650;27;20026;-64
2022/11/25 09:18:09;;;;;;;9.60;3.20;;;;;;;12.79;76.02;101306.69;5136646;27;20582;-64
2022/11/25 09:20:37;;;;;;;7.75;2.92;;;;;;;12.95;74.84;101301.53;5136930;27;20023;-75
2022/11/25 09:23:02;;;;;;;7.07;2.90;;;;;;;13.06;74.15;101315.78;5136674;27;20023;-65
2022/11/25 09:25:28;;;;;;;7.88;3.08;;;;;;;13.18;74.20;101315.84;5136594;27;20084;-65
2022/11/25 09:27:55;;;;;;;8.20;2.97;;;;;;;13.32;74.11;101328.38;5136735;27;20358;-65
2022/11/25 09:30:21;;;;;;;10.55;3.30;;;;;;;13.46;73.15;101322.28;5136486;27;20031;-65
2022/11/25 09:32:51;;;;;;;10.30;3.08;;;;;;;13.64;72.45;101339.22;5136373;27;20391;-65
2022/11/25 09:35:18;;;;;;;7.75;2.80;;;;;;;13.52;72.98;101335.59;5134885;27;20496;-64
2022/11/25 09:37:43;;;;;;;10.07;3.38;;;;;;;13.11;72.16;101337.94;5136355;27;20027;-65
2022/11/25 09:40:39;;;;;;;8.82;3.17;;;;;;;12.98;75.50;101342.25;5136307;27;20049;-64
2022/11/25 09:46:44;;;;;;;11.80;3.38;;;;;;;13.01;75.64;101350.19;5136281;27;20034;-65
2022/11/25 09:49:25;;;;;;;12.27;3.17;;;;;;;13.21;75.27;101349.50;5136424;27;20087;-64
2022/11/25 09:52:05;;;;;;;9.63;3.13;;;;;;;13.35;73.77;101357.59;5136002;27;20113;-64
2022/11/25 09:54:36;;;;;;;9.57;3.35;;;;;;;13.35;73.80;101363.78;5136310;27;20023;-64
2022/11/25 09:57:25;;;;;;;10.55;3.10;;;;;;;13.36;73.96;101367.31;5136278;27;20027;-64
2022/11/25 10:00:11;;;;;;;6.55;2.92;;;;;;;13.38;74.04;101365.59;5135908;27;20031;-64
2022/11/25 10:02:44;;;;;;;11.98;3.50;;;;;;;13.38;73.12;101366.47;5135965;27;20492;-64
2022/11/25 10:05:18;;;;;;;11.68;3.40;;;;;;;13.26;73.02;101369.03;5134526;27;20037;-63
2022/11/25 10:07:48;;;;;;;9.93;3.17;;;;;;;13.37;72.93;101374.44;5135913;27;20023;-64
2022/11/25 10:10:29;;;;;;;10.23;2.95;;;;;;;13.46;72.93;101370.06;5135735;27;20448;-64
2022/11/25 10:12:56;;;;;;;11.43;3.30;;;;;;;13.51;72.68;101381.63;5135620;27;20023;-64
2022/11/25 10:15:38;;;;;;;10.02;3.30;;;;;;;13.59;72.54;101376.38;5135434;27;20022;-64
2022/11/25 10:18:12;;;;;;;8.30;3.15;;;;;;;13.69;70.85;101388.81;5135690;27;20084;-64
2022/11/25 10:20:40;;;;;;;12.60;3.03;;;;;;;13.73;70.63;101395.03;5135622;27;20027;-65
2022/11/25 10:23:09;;;;;;;14.15;3.40;;;;;;;13.78;71.28;101396.84;5135539;27;20023;-64
2022/11/25 10:25:44;;;;;;;9.40;3.20;;;;;;;13.84;69.80;101414.59;5135378;27;20024;-64
2022/11/25 10:28:20;;;;;;;10.88;3.60;;;;;;;13.84;69.96;101409.28;5135286;27;20035;-65
2022/11/25 10:31:03;;;;;;;8.23;3.00;;;;;;;14.02;70.32;101413.81;5135408;27;20072;-64
2022/11/25 10:33:38;;;;;;;13.30;3.40;;;;;;;14.10;69.63;101416.53;5135645;27;20027;-64
2022/11/25 10:36:09;;;;;;;10.90;2.95;;;;;;;13.97;68.63;101411.16;5135249;27;20030;-64
2022/11/25 10:38:40;;;;;;;13.32;3.47;;;;;;;14.17;69.63;101420.97;5134891;27;20102;-64
2022/11/25 10:41:05;;;;;;;11.50;3.05;;;;;;;14.14;67.68;101421.88;5135382;27;20064;-64
2022/11/25 10:43:32;;;;;;;9.48;3.05;;;;;;;14.23;68.48;101427.22;5133852;27;20389;-66
2022/11/25 10:46:09;;;;;;;9.60;3.22;;;;;;;14.41;68.42;101426.41;5134585;27;20049;-65
2022/11/25 10:49:09;;;;;;;9.60;3.25;;;;;;;14.53;68.78;101434.50;5135049;27;20051;-66
2022/11/25 10:51:36;;;;;;;10.35;3.00;;;;;;;14.61;66.38;101433.63;5134339;27;20055;-65
2022/11/25 10:54:20;;;;;;;7.93;2.85;;;;;;;14.78;67.71;101437.25;5135145;27;20077;-65
2022/11/25 10:56:53;;;;;;;9.65;2.83;;;;;;;14.98;66.19;101435.50;5134703;27;20031;-66
2022/11/25 10:59:31;;;;;;;8.60;2.83;;;;;;;15.13;66.02;101433.75;5134992;27;20050;-65
2022/11/25 11:02:22;;;;;;;8.68;3.03;;;;;;;15.25;65.27;101444.44;5134771;27;20034;-65
2022/11/25 11:05:06;;;;;;;9.73;2.85;;;;;;;15.31;64.38;101432.88;5134957;27;20020;-65
2022/11/25 11:07:34;;;;;;;8.35;2.92;;;;;;;15.25;63.57;101436.44;5134550;27;20029;-63
2022/11/25 11:10:21;;;;;;;10.40;2.90;;;;;;;15.34;65.13;101439.09;5134761;27;20015;-64
2022/11/25 11:12:58;;;;;;;9.68;2.72;;;;;;;15.55;64.56;101443.56;5134641;27;20110;-64
2022/11/25 11:15:29;;;;;;;9.10;2.90;;;;;;;15.41;61.29;101443.53;5134575;27;20019;-66
2022/11/25 11:17:56;;;;;;;9.45;2.90;;;;;;;15.46;62.44;101451.53;5134171;27;20369;-66
2022/11/25 11:20:28;;;;;;;9.48;2.72;;;;;;;15.57;62.87;101454.19;5134570;27;20031;-64
2022/11/25 11:23:13;;;;;;;9.85;3.30;;;;;;;15.69;63.19;101470.22;5134195;27;20050;-65
2022/11/25 11:25:41;;;;;;;9.02;3.00;;;;;;;15.61;62.43;101466.63;5133871;27;20515;-63
2022/11/25 11:28:24;;;;;;;8.90;3.08;;;;;;;15.66;63.44;101471.09;5134541;27;20419;-63
2022/11/25 11:30:57;;;;;;;8.13;3.00;;;;;;;15.86;61.52;101479.09;5134111;27;20102;-64
2022/11/25 11:33:28;;;;;;;9.63;3.03;;;;;;;16.19;62.01;101478.16;5134482;27;20074;-63
2022/11/25 11:36:22;;;;;;;10.02;2.85;;;;;;;16.36;60.76;101482.53;5134095;27;20103;-63
2022/11/25 11:39:28;;;;;;;12.65;2.85;;;;;;;16.09;59.39;101475.50;5114908;27;20096;-64
2022/11/25 11:42:03;;;;;;;10.88;2.50;;;;;;;16.06;59.72;101487.06;5110527;27;20054;-63